X  Close Metar Aviation Weather Data     EBBR Brussels Airport
Temperature
-3°C Temperature
-5°C Dewpoint
86% Humidity



Wind
2 KM/H
1 MPH
0 M/S
1 KTS



Calm
North
Current Conditions

Clear Clear
Pressure 1032.92 (hPa) - 30.5 (inHg)
Visibility 6.2 (mile) - 10 (km)
Airport
Airport-code EBBR

Location: Brussels Airport
Distance: 14 (km)

Metar:
EBBR 060620Z VRB01KT CAVOK M03/M05 Q1033 NOSIG

Time: 03-06-2021 07:20 CET